This is the latest recevied weather packets stored in our database for station/object LZ0VRC-10. If no packets are shown the sender has not sent any weather packets the latest 10 day(s).
| Time | Temp. | Humidity | Pressure | Rain* | Wind** | Luminosity | Snow |
|---|---|---|---|---|---|---|---|
| 1777685405 | 3.33° C | 78% | 1024.3 hPa | - | - | - | - |
| 1777684505 | 3.89° C | 79% | 1024.2 hPa | - | - | - | - |
| 1777683610 | 3.33° C | 83% | 1024.3 hPa | - | - | - | - |
| 1777683605 | 3.33° C | 83% | 1024.3 hPa | - | - | - | - |
| 1777682705 | 2.78° C | 84% | 1024.4 hPa | - | - | - | - |
| 1777681810 | 2.78° C | 86% | 1024.6 hPa | - | - | - | - |
| 1777681805 | 2.78° C | 86% | 1024.6 hPa | - | - | - | - |
| 1777680910 | 2.22° C | 92% | 1024.6 hPa | - | - | - | - |
| 1777680905 | 2.22° C | 92% | 1024.6 hPa | - | - | - | - |
| 1777680010 | 2.22° C | 94% | 1024.9 hPa | - | - | - | - |
| 1777680005 | 2.22° C | 94% | 1024.9 hPa | - | - | - | - |
| 1777679105 | 2.78° C | 92% | 1025.1 hPa | - | - | - | - |
| 1777678210 | 2.22° C | 92% | 1025.3 hPa | - | - | - | - |
| 1777678205 | 2.22° C | 92% | 1025.3 hPa | - | - | - | - |
| 1777677310 | 2.22° C | 91% | 1025.4 hPa | - | - | - | - |
| 1777677305 | 2.22° C | 91% | 1025.4 hPa | - | - | - | - |
| 1777676410 | 2.78° C | 89% | 1025.5 hPa | - | - | - | - |
| 1777676405 | 2.78° C | 89% | 1025.5 hPa | - | - | - | - |
| 1777675510 | 2.78° C | 88% | 1025.7 hPa | - | - | - | - |
| 1777675505 | 2.78° C | 88% | 1025.7 hPa | - | - | - | - |
| 1777674611 | 3.89° C | 82% | 1025.7 hPa | - | - | - | - |
| 1777673706 | 3.89° C | 78% | 1025.7 hPa | - | - | - | - |
| 1777672810 | 4.44° C | 74% | 1025.8 hPa | - | - | - | - |
| 1777672806 | 4.44° C | 74% | 1025.8 hPa | - | - | - | - |
| 1777671905 | 4.44° C | 73% | 1025.8 hPa | - | - | - | - |
* Rain since midnight (hover to see other rain measurements)
** Current wind speed in m/s (hover to see current wind gust speed)